sensor_id;sensor_type;location;lat;lon;timestamp;P1;durP1;ratioP1;P2;durP2;ratioP2
17079;SDS011;8655;57.106;-2.088;2023-03-17T00:01:37;1.73;;;1.20;;
17079;SDS011;8655;57.106;-2.088;2023-03-17T00:04:03;1.37;;;1.10;;
17079;SDS011;8655;57.106;-2.088;2023-03-17T00:06:30;1.60;;;1.10;;
17079;SDS011;8655;57.106;-2.088;2023-03-17T00:08:57;1.23;;;1.00;;
17079;SDS011;8655;57.106;-2.088;2023-03-17T00:11:24;1.00;;;0.90;;
17079;SDS011;8655;57.106;-2.088;2023-03-17T00:13:51;0.97;;;0.80;;
17079;SDS011;8655;57.106;-2.088;2023-03-17T00:16:20;1.40;;;1.30;;
17079;SDS011;8655;57.106;-2.088;2023-03-17T00:18:49;1.17;;;1.07;;
17079;SDS011;8655;57.106;-2.088;2023-03-17T00:21:28;0.93;;;0.83;;
17079;SDS011;8655;57.106;-2.088;2023-03-17T00:23:55;1.00;;;0.90;;
17079;SDS011;8655;57.106;-2.088;2023-03-17T00:26:22;1.00;;;0.90;;
17079;SDS011;8655;57.106;-2.088;2023-03-17T00:28:48;1.20;;;1.10;;
17079;SDS011;8655;57.106;-2.088;2023-03-17T00:31:19;1.03;;;0.93;;
17079;SDS011;8655;57.106;-2.088;2023-03-17T00:33:49;1.00;;;1.00;;
17079;SDS011;8655;57.106;-2.088;2023-03-17T00:36:20;1.23;;;1.00;;
17079;SDS011;8655;57.106;-2.088;2023-03-17T00:38:56;1.40;;;1.10;;
17079;SDS011;8655;57.106;-2.088;2023-03-17T00:41:23;1.43;;;1.20;;
17079;SDS011;8655;57.106;-2.088;2023-03-17T00:43:48;1.50;;;0.90;;
17079;SDS011;8655;57.106;-2.088;2023-03-17T00:46:19;1.50;;;1.20;;
17079;SDS011;8655;57.106;-2.088;2023-03-17T00:48:52;1.83;;;1.30;;
17079;SDS011;8655;57.106;-2.088;2023-03-17T00:51:19;0.90;;;0.90;;
17079;SDS011;8655;57.106;-2.088;2023-03-17T00:53:46;0.87;;;0.87;;
17079;SDS011;8655;57.106;-2.088;2023-03-17T00:56:13;1.50;;;1.27;;
17079;SDS011;8655;57.106;-2.088;2023-03-17T00:58:40;1.60;;;1.40;;
17079;SDS011;8655;57.106;-2.088;2023-03-17T01:01:06;1.10;;;1.00;;
17079;SDS011;8655;57.106;-2.088;2023-03-17T01:03:32;1.33;;;1.23;;
17079;SDS011;8655;57.106;-2.088;2023-03-17T01:05:59;1.10;;;1.00;;
17079;SDS011;8655;57.106;-2.088;2023-03-17T01:08:26;1.10;;;1.00;;
17079;SDS011;8655;57.106;-2.088;2023-03-17T01:10:54;1.33;;;1.03;;
17079;SDS011;8655;57.106;-2.088;2023-03-17T01:13:20;1.00;;;0.90;;
17079;SDS011;8655;57.106;-2.088;2023-03-17T01:15:47;1.30;;;1.10;;
17079;SDS011;8655;57.106;-2.088;2023-03-17T01:18:15;1.10;;;1.00;;
17079;SDS011;8655;57.106;-2.088;2023-03-17T01:20:43;1.10;;;0.90;;
17079;SDS011;8655;57.106;-2.088;2023-03-17T01:23:10;1.80;;;1.20;;
17079;SDS011;8655;57.106;-2.088;2023-03-17T01:25:36;1.20;;;1.10;;
17079;SDS011;8655;57.106;-2.088;2023-03-17T01:28:03;0.90;;;0.90;;
17079;SDS011;8655;57.106;-2.088;2023-03-17T01:30:34;1.00;;;0.97;;
17079;SDS011;8655;57.106;-2.088;2023-03-17T01:33:05;1.07;;;1.00;;
17079;SDS011;8655;57.106;-2.088;2023-03-17T01:35:32;1.50;;;0.90;;
17079;SDS011;8655;57.106;-2.088;2023-03-17T01:37:59;1.47;;;1.20;;
17079;SDS011;8655;57.106;-2.088;2023-03-17T01:40:29;1.10;;;1.00;;
17079;SDS011;8655;57.106;-2.088;2023-03-17T01:43:42;1.63;;;1.00;;
17079;SDS011;8655;57.106;-2.088;2023-03-17T01:54:19;1.00;;;0.90;;
17079;SDS011;8655;57.106;-2.088;2023-03-17T01:56:47;1.13;;;0.93;;
17079;SDS011;8655;57.106;-2.088;2023-03-17T01:59:21;0.87;;;0.87;;
17079;SDS011;8655;57.106;-2.088;2023-03-17T02:01:53;0.93;;;0.90;;
17079;SDS011;8655;57.106;-2.088;2023-03-17T02:04:26;1.20;;;0.97;;
17079;SDS011;8655;57.106;-2.088;2023-03-17T02:06:52;1.20;;;1.10;;
17079;SDS011;8655;57.106;-2.088;2023-03-17T02:09:18;1.10;;;0.90;;
17079;SDS011;8655;57.106;-2.088;2023-03-17T02:11:44;0.80;;;0.80;;
17079;SDS011;8655;57.106;-2.088;2023-03-17T02:14:10;1.03;;;0.80;;
17079;SDS011;8655;57.106;-2.088;2023-03-17T02:16:36;1.37;;;1.07;;
17079;SDS011;8655;57.106;-2.088;2023-03-17T02:19:02;0.80;;;0.80;;
17079;SDS011;8655;57.106;-2.088;2023-03-17T02:21:36;1.27;;;0.97;;
17079;SDS011;8655;57.106;-2.088;2023-03-17T02:24:07;0.80;;;0.80;;
17079;SDS011;8655;57.106;-2.088;2023-03-17T02:26:41;0.80;;;0.80;;
17079;SDS011;8655;57.106;-2.088;2023-03-17T02:29:09;1.13;;;1.03;;
17079;SDS011;8655;57.106;-2.088;2023-03-17T02:31:35;1.10;;;0.90;;
17079;SDS011;8655;57.106;-2.088;2023-03-17T02:34:01;0.90;;;0.90;;
17079;SDS011;8655;57.106;-2.088;2023-03-17T02:36:26;1.83;;;1.17;;
17079;SDS011;8655;57.106;-2.088;2023-03-17T02:38:52;1.60;;;1.20;;
17079;SDS011;8655;57.106;-2.088;2023-03-17T02:41:18;1.47;;;0.80;;
17079;SDS011;8655;57.106;-2.088;2023-03-17T02:43:44;0.73;;;0.73;;
17079;SDS011;8655;57.106;-2.088;2023-03-17T02:46:10;0.90;;;0.90;;
17079;SDS011;8655;57.106;-2.088;2023-03-17T02:48:36;1.10;;;0.80;;
17079;SDS011;8655;57.106;-2.088;2023-03-17T02:51:03;1.20;;;0.97;;
17079;SDS011;8655;57.106;-2.088;2023-03-17T02:53:30;1.20;;;1.10;;
17079;SDS011;8655;57.106;-2.088;2023-03-17T02:55:56;1.00;;;0.90;;
17079;SDS011;8655;57.106;-2.088;2023-03-17T02:58:22;0.90;;;0.83;;
17079;SDS011;8655;57.106;-2.088;2023-03-17T03:00:47;1.47;;;1.00;;
17079;SDS011;8655;57.106;-2.088;2023-03-17T03:03:13;0.70;;;0.70;;
17079;SDS011;8655;57.106;-2.088;2023-03-17T03:05:40;0.80;;;0.80;;
17079;SDS011;8655;57.106;-2.088;2023-03-17T03:08:06;1.00;;;0.80;;
17079;SDS011;8655;57.106;-2.088;2023-03-17T03:10:32;1.43;;;1.00;;
17079;SDS011;8655;57.106;-2.088;2023-03-17T03:12:58;0.87;;;0.87;;
17079;SDS011;8655;57.106;-2.088;2023-03-17T03:15:23;1.17;;;1.00;;
17079;SDS011;8655;57.106;-2.088;2023-03-17T03:17:49;0.97;;;0.80;;
17079;SDS011;8655;57.106;-2.088;2023-03-17T03:20:15;0.97;;;0.90;;
17079;SDS011;8655;57.106;-2.088;2023-03-17T03:22:42;0.80;;;0.80;;
17079;SDS011;8655;57.106;-2.088;2023-03-17T03:25:08;0.80;;;0.80;;
17079;SDS011;8655;57.106;-2.088;2023-03-17T03:27:34;1.30;;;0.83;;
17079;SDS011;8655;57.106;-2.088;2023-03-17T03:30:00;0.83;;;0.83;;
17079;SDS011;8655;57.106;-2.088;2023-03-17T03:32:26;1.00;;;0.90;;
17079;SDS011;8655;57.106;-2.088;2023-03-17T03:34:52;1.10;;;0.90;;
17079;SDS011;8655;57.106;-2.088;2023-03-17T03:37:18;0.80;;;0.80;;
17079;SDS011;8655;57.106;-2.088;2023-03-17T03:39:43;1.07;;;0.77;;
17079;SDS011;8655;57.106;-2.088;2023-03-17T03:42:09;0.97;;;0.80;;
17079;SDS011;8655;57.106;-2.088;2023-03-17T03:44:35;0.90;;;0.73;;
17079;SDS011;8655;57.106;-2.088;2023-03-17T03:47:01;1.13;;;1.03;;
17079;SDS011;8655;57.106;-2.088;2023-03-17T03:49:27;0.90;;;0.70;;
17079;SDS011;8655;57.106;-2.088;2023-03-17T03:51:52;0.80;;;0.80;;
17079;SDS011;8655;57.106;-2.088;2023-03-17T03:54:18;0.90;;;0.90;;
17079;SDS011;8655;57.106;-2.088;2023-03-17T03:56:44;1.00;;;0.90;;
17079;SDS011;8655;57.106;-2.088;2023-03-17T03:59:09;1.00;;;0.80;;
17079;SDS011;8655;57.106;-2.088;2023-03-17T04:01:35;0.80;;;0.80;;
17079;SDS011;8655;57.106;-2.088;2023-03-17T04:04:01;0.70;;;0.70;;
17079;SDS011;8655;57.106;-2.088;2023-03-17T04:06:27;1.03;;;1.00;;
17079;SDS011;8655;57.106;-2.088;2023-03-17T04:08:52;0.80;;;0.80;;
17079;SDS011;8655;57.106;-2.088;2023-03-17T04:11:18;0.80;;;0.80;;
17079;SDS011;8655;57.106;-2.088;2023-03-17T04:13:43;1.00;;;0.80;;
17079;SDS011;8655;57.106;-2.088;2023-03-17T04:16:09;1.00;;;0.90;;
17079;SDS011;8655;57.106;-2.088;2023-03-17T04:18:35;1.40;;;1.00;;
17079;SDS011;8655;57.106;-2.088;2023-03-17T04:21:01;1.10;;;1.00;;
17079;SDS011;8655;57.106;-2.088;2023-03-17T04:23:27;0.87;;;0.83;;
17079;SDS011;8655;57.106;-2.088;2023-03-17T04:25:52;1.03;;;0.90;;
17079;SDS011;8655;57.106;-2.088;2023-03-17T04:28:18;0.83;;;0.83;;
17079;SDS011;8655;57.106;-2.088;2023-03-17T04:30:45;0.77;;;0.70;;
17079;SDS011;8655;57.106;-2.088;2023-03-17T04:33:11;0.90;;;0.80;;
17079;SDS011;8655;57.106;-2.088;2023-03-17T04:35:36;0.80;;;0.80;;
17079;SDS011;8655;57.106;-2.088;2023-03-17T04:38:02;0.80;;;0.80;;
17079;SDS011;8655;57.106;-2.088;2023-03-17T04:40:27;0.90;;;0.90;;
17079;SDS011;8655;57.106;-2.088;2023-03-17T04:42:53;1.00;;;0.80;;
17079;SDS011;8655;57.106;-2.088;2023-03-17T04:45:19;0.80;;;0.70;;
17079;SDS011;8655;57.106;-2.088;2023-03-17T04:47:45;0.80;;;0.80;;
17079;SDS011;8655;57.106;-2.088;2023-03-17T04:50:11;0.80;;;0.73;;
17079;SDS011;8655;57.106;-2.088;2023-03-17T04:52:37;0.70;;;0.70;;
17079;SDS011;8655;57.106;-2.088;2023-03-17T04:55:04;0.70;;;0.70;;
17079;SDS011;8655;57.106;-2.088;2023-03-17T04:57:32;0.67;;;0.60;;
17079;SDS011;8655;57.106;-2.088;2023-03-17T04:59:58;0.70;;;0.70;;
17079;SDS011;8655;57.106;-2.088;2023-03-17T05:02:23;0.70;;;0.70;;
17079;SDS011;8655;57.106;-2.088;2023-03-17T05:04:50;0.80;;;0.77;;
17079;SDS011;8655;57.106;-2.088;2023-03-17T05:07:16;0.97;;;0.80;;
17079;SDS011;8655;57.106;-2.088;2023-03-17T05:09:41;0.80;;;0.80;;
17079;SDS011;8655;57.106;-2.088;2023-03-17T05:12:07;0.87;;;0.77;;
17079;SDS011;8655;57.106;-2.088;2023-03-17T05:14:34;0.80;;;0.80;;
17079;SDS011;8655;57.106;-2.088;2023-03-17T05:17:00;0.80;;;0.80;;
17079;SDS011;8655;57.106;-2.088;2023-03-17T05:19:25;0.80;;;0.73;;
17079;SDS011;8655;57.106;-2.088;2023-03-17T05:21:51;1.33;;;1.03;;
17079;SDS011;8655;57.106;-2.088;2023-03-17T05:24:17;1.30;;;1.03;;
17079;SDS011;8655;57.106;-2.088;2023-03-17T05:26:42;0.70;;;0.70;;
17079;SDS011;8655;57.106;-2.088;2023-03-17T05:29:08;1.33;;;1.00;;
17079;SDS011;8655;57.106;-2.088;2023-03-17T05:31:34;0.90;;;0.90;;
17079;SDS011;8655;57.106;-2.088;2023-03-17T05:34:01;0.80;;;0.80;;
17079;SDS011;8655;57.106;-2.088;2023-03-17T05:36:28;0.80;;;0.80;;
17079;SDS011;8655;57.106;-2.088;2023-03-17T05:38:53;0.80;;;0.67;;
17079;SDS011;8655;57.106;-2.088;2023-03-17T05:41:19;0.80;;;0.80;;
17079;SDS011;8655;57.106;-2.088;2023-03-17T05:43:45;0.80;;;0.80;;
17079;SDS011;8655;57.106;-2.088;2023-03-17T05:46:11;0.70;;;0.70;;
17079;SDS011;8655;57.106;-2.088;2023-03-17T05:48:37;1.20;;;0.90;;
17079;SDS011;8655;57.106;-2.088;2023-03-17T05:51:03;0.77;;;0.77;;
17079;SDS011;8655;57.106;-2.088;2023-03-17T05:53:29;0.83;;;0.80;;
17079;SDS011;8655;57.106;-2.088;2023-03-17T05:55:55;0.77;;;0.73;;
17079;SDS011;8655;57.106;-2.088;2023-03-17T05:58:21;1.10;;;0.90;;
17079;SDS011;8655;57.106;-2.088;2023-03-17T06:00:47;0.90;;;0.90;;
17079;SDS011;8655;57.106;-2.088;2023-03-17T06:03:13;0.77;;;0.70;;
17079;SDS011;8655;57.106;-2.088;2023-03-17T06:05:38;1.20;;;0.90;;
17079;SDS011;8655;57.106;-2.088;2023-03-17T06:08:04;0.73;;;0.70;;
17079;SDS011;8655;57.106;-2.088;2023-03-17T06:10:30;0.97;;;0.80;;
17079;SDS011;8655;57.106;-2.088;2023-03-17T06:12:56;0.53;;;0.53;;
17079;SDS011;8655;57.106;-2.088;2023-03-17T06:15:23;0.70;;;0.70;;
17079;SDS011;8655;57.106;-2.088;2023-03-17T06:17:49;1.00;;;0.90;;
17079;SDS011;8655;57.106;-2.088;2023-03-17T06:20:16;1.00;;;0.70;;
17079;SDS011;8655;57.106;-2.088;2023-03-17T06:22:42;0.70;;;0.70;;
17079;SDS011;8655;57.106;-2.088;2023-03-17T06:25:08;0.80;;;0.73;;
17079;SDS011;8655;57.106;-2.088;2023-03-17T06:27:35;0.50;;;0.50;;
17079;SDS011;8655;57.106;-2.088;2023-03-17T06:30:02;1.50;;;1.23;;
17079;SDS011;8655;57.106;-2.088;2023-03-17T06:32:32;0.83;;;0.83;;
17079;SDS011;8655;57.106;-2.088;2023-03-17T06:34:58;0.47;;;0.47;;
17079;SDS011;8655;57.106;-2.088;2023-03-17T06:37:23;0.90;;;0.77;;
17079;SDS011;8655;57.106;-2.088;2023-03-17T06:39:49;0.80;;;0.80;;
17079;SDS011;8655;57.106;-2.088;2023-03-17T06:42:15;0.87;;;0.77;;
17079;SDS011;8655;57.106;-2.088;2023-03-17T06:44:41;0.70;;;0.60;;
17079;SDS011;8655;57.106;-2.088;2023-03-17T06:47:06;0.80;;;0.80;;
17079;SDS011;8655;57.106;-2.088;2023-03-17T06:49:32;0.97;;;0.63;;
17079;SDS011;8655;57.106;-2.088;2023-03-17T06:51:58;0.73;;;0.73;;
17079;SDS011;8655;57.106;-2.088;2023-03-17T06:54:24;0.70;;;0.70;;
17079;SDS011;8655;57.106;-2.088;2023-03-17T06:56:50;0.70;;;0.50;;
17079;SDS011;8655;57.106;-2.088;2023-03-17T06:59:17;1.03;;;0.70;;
17079;SDS011;8655;57.106;-2.088;2023-03-17T07:01:43;0.87;;;0.70;;
17079;SDS011;8655;57.106;-2.088;2023-03-17T07:04:10;0.73;;;0.63;;
17079;SDS011;8655;57.106;-2.088;2023-03-17T07:06:36;0.60;;;0.60;;
17079;SDS011;8655;57.106;-2.088;2023-03-17T07:09:02;0.70;;;0.60;;
17079;SDS011;8655;57.106;-2.088;2023-03-17T07:11:28;0.70;;;0.70;;
17079;SDS011;8655;57.106;-2.088;2023-03-17T07:13:54;1.40;;;0.73;;
17079;SDS011;8655;57.106;-2.088;2023-03-17T07:16:20;0.70;;;0.70;;
17079;SDS011;8655;57.106;-2.088;2023-03-17T07:18:46;0.67;;;0.67;;
17079;SDS011;8655;57.106;-2.088;2023-03-17T07:21:12;0.70;;;0.70;;
17079;SDS011;8655;57.106;-2.088;2023-03-17T07:23:38;1.03;;;0.60;;
17079;SDS011;8655;57.106;-2.088;2023-03-17T07:26:03;0.70;;;0.70;;
17079;SDS011;8655;57.106;-2.088;2023-03-17T07:28:29;0.80;;;0.80;;
17079;SDS011;8655;57.106;-2.088;2023-03-17T07:30:55;0.93;;;0.80;;
17079;SDS011;8655;57.106;-2.088;2023-03-17T07:33:22;0.75;;;0.75;;
17079;SDS011;8655;57.106;-2.088;2023-03-17T07:35:49;0.80;;;0.80;;
17079;SDS011;8655;57.106;-2.088;2023-03-17T07:38:16;0.80;;;0.80;;
17079;SDS011;8655;57.106;-2.088;2023-03-17T07:40:43;0.82;;;0.70;;
17079;SDS011;8655;57.106;-2.088;2023-03-17T07:43:11;0.80;;;0.60;;
17079;SDS011;8655;57.106;-2.088;2023-03-17T07:45:37;0.50;;;0.50;;
17079;SDS011;8655;57.106;-2.088;2023-03-17T07:48:03;0.57;;;0.57;;
17079;SDS011;8655;57.106;-2.088;2023-03-17T07:50:33;1.37;;;0.80;;
17079;SDS011;8655;57.106;-2.088;2023-03-17T07:52:59;0.67;;;0.67;;
17079;SDS011;8655;57.106;-2.088;2023-03-17T07:55:27;0.90;;;0.73;;
17079;SDS011;8655;57.106;-2.088;2023-03-17T07:57:56;0.85;;;0.70;;
17079;SDS011;8655;57.106;-2.088;2023-03-17T08:00:23;0.70;;;0.70;;
17079;SDS011;8655;57.106;-2.088;2023-03-17T08:02:51;0.70;;;0.70;;
17079;SDS011;8655;57.106;-2.088;2023-03-17T08:05:17;0.65;;;0.65;;
17079;SDS011;8655;57.106;-2.088;2023-03-17T08:07:42;0.70;;;0.70;;
17079;SDS011;8655;57.106;-2.088;2023-03-17T08:10:09;0.57;;;0.57;;
17079;SDS011;8655;57.106;-2.088;2023-03-17T08:12:37;0.70;;;0.70;;
17079;SDS011;8655;57.106;-2.088;2023-03-17T08:15:04;0.75;;;0.60;;
17079;SDS011;8655;57.106;-2.088;2023-03-17T08:17:30;1.13;;;0.60;;
17079;SDS011;8655;57.106;-2.088;2023-03-17T08:19:56;0.93;;;0.80;;
17079;SDS011;8655;57.106;-2.088;2023-03-17T08:22:22;0.70;;;0.70;;
17079;SDS011;8655;57.106;-2.088;2023-03-17T08:24:48;0.73;;;0.70;;
17079;SDS011;8655;57.106;-2.088;2023-03-17T08:27:15;0.70;;;0.70;;
17079;SDS011;8655;57.106;-2.088;2023-03-17T08:29:42;0.60;;;0.60;;
17079;SDS011;8655;57.106;-2.088;2023-03-17T08:32:08;1.38;;;0.55;;
17079;SDS011;8655;57.106;-2.088;2023-03-17T08:34:34;0.73;;;0.70;;
17079;SDS011;8655;57.106;-2.088;2023-03-17T08:37:00;0.85;;;0.60;;
17079;SDS011;8655;57.106;-2.088;2023-03-17T08:39:27;0.47;;;0.47;;
17079;SDS011;8655;57.106;-2.088;2023-03-17T08:41:53;0.80;;;0.80;;
17079;SDS011;8655;57.106;-2.088;2023-03-17T08:44:19;0.60;;;0.60;;
17079;SDS011;8655;57.106;-2.088;2023-03-17T08:46:46;0.80;;;0.80;;
17079;SDS011;8655;57.106;-2.088;2023-03-17T08:49:13;0.63;;;0.63;;
17079;SDS011;8655;57.106;-2.088;2023-03-17T08:51:40;0.65;;;0.60;;
17079;SDS011;8655;57.106;-2.088;2023-03-17T08:54:06;0.90;;;0.80;;
17079;SDS011;8655;57.106;-2.088;2023-03-17T08:56:32;0.87;;;0.80;;
17079;SDS011;8655;57.106;-2.088;2023-03-17T08:58:58;0.70;;;0.70;;
17079;SDS011;8655;57.106;-2.088;2023-03-17T09:01:24;0.85;;;0.77;;
17079;SDS011;8655;57.106;-2.088;2023-03-17T09:03:54;0.60;;;0.60;;
17079;SDS011;8655;57.106;-2.088;2023-03-17T09:06:20;1.20;;;0.75;;
17079;SDS011;8655;57.106;-2.088;2023-03-17T09:08:46;1.00;;;0.88;;
17079;SDS011;8655;57.106;-2.088;2023-03-17T09:11:17;0.82;;;0.80;;
17079;SDS011;8655;57.106;-2.088;2023-03-17T09:13:44;0.50;;;0.50;;
17079;SDS011;8655;57.106;-2.088;2023-03-17T09:16:11;1.00;;;0.70;;
17079;SDS011;8655;57.106;-2.088;2023-03-17T09:18:38;0.52;;;0.52;;
17079;SDS011;8655;57.106;-2.088;2023-03-17T09:21:05;1.83;;;0.60;;
17079;SDS011;8655;57.106;-2.088;2023-03-17T09:23:30;0.60;;;0.60;;
17079;SDS011;8655;57.106;-2.088;2023-03-17T09:25:57;0.70;;;0.70;;
17079;SDS011;8655;57.106;-2.088;2023-03-17T09:28:23;0.80;;;0.70;;
17079;SDS011;8655;57.106;-2.088;2023-03-17T09:30:49;0.60;;;0.52;;
17079;SDS011;8655;57.106;-2.088;2023-03-17T09:33:15;0.70;;;0.70;;
17079;SDS011;8655;57.106;-2.088;2023-03-17T09:35:41;0.75;;;0.60;;
17079;SDS011;8655;57.106;-2.088;2023-03-17T09:38:08;0.50;;;0.50;;
17079;SDS011;8655;57.106;-2.088;2023-03-17T09:43:31;0.60;;;0.60;;
17079;SDS011;8655;57.106;-2.088;2023-03-17T09:46:06;0.60;;;0.60;;
17079;SDS011;8655;57.106;-2.088;2023-03-17T09:48:56;0.68;;;0.63;;
17079;SDS011;8655;57.106;-2.088;2023-03-17T09:51:25;0.70;;;0.70;;
17079;SDS011;8655;57.106;-2.088;2023-03-17T09:56:30;0.95;;;0.50;;
17079;SDS011;8655;57.106;-2.088;2023-03-17T10:01:47;1.05;;;0.80;;
17079;SDS011;8655;57.106;-2.088;2023-03-17T10:04:14;0.60;;;0.60;;
17079;SDS011;8655;57.106;-2.088;2023-03-17T10:06:41;0.80;;;0.75;;
17079;SDS011;8655;57.106;-2.088;2023-03-17T10:09:24;0.55;;;0.55;;
17079;SDS011;8655;57.106;-2.088;2023-03-17T10:12:09;0.50;;;0.50;;
17079;SDS011;8655;57.106;-2.088;2023-03-17T10:17:24;0.40;;;0.40;;
17079;SDS011;8655;57.106;-2.088;2023-03-17T10:23:06;0.73;;;0.60;;
17079;SDS011;8655;57.106;-2.088;2023-03-17T10:25:35;0.70;;;0.70;;
17079;SDS011;8655;57.106;-2.088;2023-03-17T10:28:04;0.85;;;0.70;;
17079;SDS011;8655;57.106;-2.088;2023-03-17T10:30:37;0.60;;;0.60;;
17079;SDS011;8655;57.106;-2.088;2023-03-17T10:33:04;0.50;;;0.50;;
17079;SDS011;8655;57.106;-2.088;2023-03-17T10:35:34;0.60;;;0.60;;
17079;SDS011;8655;57.106;-2.088;2023-03-17T10:38:14;0.77;;;0.70;;
17079;SDS011;8655;57.106;-2.088;2023-03-17T10:40:43;0.50;;;0.50;;
17079;SDS011;8655;57.106;-2.088;2023-03-17T10:43:15;0.57;;;0.57;;
17079;SDS011;8655;57.106;-2.088;2023-03-17T10:46:00;0.75;;;0.75;;
17079;SDS011;8655;57.106;-2.088;2023-03-17T10:48:28;0.80;;;0.70;;
17079;SDS011;8655;57.106;-2.088;2023-03-17T10:50:56;0.67;;;0.67;;
17079;SDS011;8655;57.106;-2.088;2023-03-17T10:53:23;0.50;;;0.50;;
17079;SDS011;8655;57.106;-2.088;2023-03-17T10:55:58;0.80;;;0.70;;
17079;SDS011;8655;57.106;-2.088;2023-03-17T10:58:38;0.60;;;0.60;;
17079;SDS011;8655;57.106;-2.088;2023-03-17T11:01:28;1.15;;;0.63;;
17079;SDS011;8655;57.106;-2.088;2023-03-17T11:04:00;0.50;;;0.50;;
17079;SDS011;8655;57.106;-2.088;2023-03-17T11:06:40;0.43;;;0.43;;
17079;SDS011;8655;57.106;-2.088;2023-03-17T11:09:09;0.50;;;0.50;;
17079;SDS011;8655;57.106;-2.088;2023-03-17T11:11:45;0.50;;;0.50;;
17079;SDS011;8655;57.106;-2.088;2023-03-17T11:14:13;0.63;;;0.60;;
17079;SDS011;8655;57.106;-2.088;2023-03-17T11:16:53;0.60;;;0.60;;
17079;SDS011;8655;57.106;-2.088;2023-03-17T11:19:28;0.60;;;0.60;;
17079;SDS011;8655;57.106;-2.088;2023-03-17T11:22:21;0.50;;;0.50;;
17079;SDS011;8655;57.106;-2.088;2023-03-17T11:33:53;1.00;;;0.50;;
17079;SDS011;8655;57.106;-2.088;2023-03-17T11:36:59;0.50;;;0.50;;
17079;SDS011;8655;57.106;-2.088;2023-03-17T11:50:26;0.70;;;0.60;;
17079;SDS011;8655;57.106;-2.088;2023-03-17T11:58:15;0.90;;;0.77;;
17079;SDS011;8655;57.106;-2.088;2023-03-17T12:00:51;0.57;;;0.50;;
17079;SDS011;8655;57.106;-2.088;2023-03-17T12:06:04;0.83;;;0.70;;
17079;SDS011;8655;57.106;-2.088;2023-03-17T12:08:47;0.57;;;0.57;;
17079;SDS011;8655;57.106;-2.088;2023-03-17T12:11:22;0.87;;;0.63;;
17079;SDS011;8655;57.106;-2.088;2023-03-17T12:13:54;0.80;;;0.65;;
17079;SDS011;8655;57.106;-2.088;2023-03-17T12:16:43;0.70;;;0.70;;
17079;SDS011;8655;57.106;-2.088;2023-03-17T12:19:31;0.50;;;0.50;;
17079;SDS011;8655;57.106;-2.088;2023-03-17T12:22:12;0.60;;;0.60;;
17079;SDS011;8655;57.106;-2.088;2023-03-17T12:25:11;0.50;;;0.50;;
17079;SDS011;8655;57.106;-2.088;2023-03-17T12:36:08;0.60;;;0.60;;
17079;SDS011;8655;57.106;-2.088;2023-03-17T12:41:17;0.80;;;0.70;;
17079;SDS011;8655;57.106;-2.088;2023-03-17T12:49:42;0.57;;;0.50;;
17079;SDS011;8655;57.106;-2.088;2023-03-17T12:54:50;1.13;;;0.60;;
17079;SDS011;8655;57.106;-2.088;2023-03-17T12:57:21;0.60;;;0.60;;
17079;SDS011;8655;57.106;-2.088;2023-03-17T12:59:56;0.80;;;0.80;;
17079;SDS011;8655;57.106;-2.088;2023-03-17T13:02:39;0.83;;;0.50;;
17079;SDS011;8655;57.106;-2.088;2023-03-17T13:05:11;0.57;;;0.53;;
17079;SDS011;8655;57.106;-2.088;2023-03-17T13:07:53;0.60;;;0.60;;
17079;SDS011;8655;57.106;-2.088;2023-03-17T13:20:50;0.90;;;0.60;;
17079;SDS011;8655;57.106;-2.088;2023-03-17T13:23:33;0.70;;;0.70;;
17079;SDS011;8655;57.106;-2.088;2023-03-17T13:26:03;0.53;;;0.53;;
17079;SDS011;8655;57.106;-2.088;2023-03-17T13:34:35;0.80;;;0.70;;
17079;SDS011;8655;57.106;-2.088;2023-03-17T13:36:50;0.63;;;0.63;;
17079;SDS011;8655;57.106;-2.088;2023-03-17T13:39:25;0.67;;;0.50;;
17079;SDS011;8655;57.106;-2.088;2023-03-17T13:42:26;0.45;;;0.45;;
17079;SDS011;8655;57.106;-2.088;2023-03-17T13:47:47;0.97;;;0.67;;
17079;SDS011;8655;57.106;-2.088;2023-03-17T13:50:16;0.90;;;0.70;;
17079;SDS011;8655;57.106;-2.088;2023-03-17T13:52:47;0.53;;;0.53;;
17079;SDS011;8655;57.106;-2.088;2023-03-17T14:00:22;0.65;;;0.57;;
17079;SDS011;8655;57.106;-2.088;2023-03-17T14:02:58;0.50;;;0.50;;
17079;SDS011;8655;57.106;-2.088;2023-03-17T14:05:31;0.60;;;0.50;;
17079;SDS011;8655;57.106;-2.088;2023-03-17T14:10:30;0.47;;;0.47;;
17079;SDS011;8655;57.106;-2.088;2023-03-17T14:13:10;0.40;;;0.40;;
17079;SDS011;8655;57.106;-2.088;2023-03-17T14:15:44;0.47;;;0.47;;
17079;SDS011;8655;57.106;-2.088;2023-03-17T14:21:22;0.70;;;0.70;;
17079;SDS011;8655;57.106;-2.088;2023-03-17T14:23:57;0.90;;;0.70;;
17079;SDS011;8655;57.106;-2.088;2023-03-17T14:26:26;1.17;;;0.60;;
17079;SDS011;8655;57.106;-2.088;2023-03-17T14:28:53;0.67;;;0.67;;
17079;SDS011;8655;57.106;-2.088;2023-03-17T14:31:20;0.50;;;0.50;;
17079;SDS011;8655;57.106;-2.088;2023-03-17T14:33:50;0.60;;;0.50;;
17079;SDS011;8655;57.106;-2.088;2023-03-17T14:36:20;0.53;;;0.50;;
17079;SDS011;8655;57.106;-2.088;2023-03-17T14:38:47;1.07;;;0.80;;
17079;SDS011;8655;57.106;-2.088;2023-03-17T14:41:16;0.40;;;0.40;;
17079;SDS011;8655;57.106;-2.088;2023-03-17T14:43:43;0.55;;;0.50;;
17079;SDS011;8655;57.106;-2.088;2023-03-17T14:46:15;0.50;;;0.50;;
17079;SDS011;8655;57.106;-2.088;2023-03-17T14:48:46;0.75;;;0.70;;
17079;SDS011;8655;57.106;-2.088;2023-03-17T14:53:49;0.73;;;0.70;;
17079;SDS011;8655;57.106;-2.088;2023-03-17T14:56:22;0.82;;;0.65;;
17079;SDS011;8655;57.106;-2.088;2023-03-17T14:58:50;1.07;;;0.60;;
17079;SDS011;8655;57.106;-2.088;2023-03-17T15:01:17;1.13;;;0.60;;
17079;SDS011;8655;57.106;-2.088;2023-03-17T15:04:14;0.60;;;0.60;;
17079;SDS011;8655;57.106;-2.088;2023-03-17T15:06:56;0.60;;;0.60;;
17079;SDS011;8655;57.106;-2.088;2023-03-17T15:09:28;0.93;;;0.70;;
17079;SDS011;8655;57.106;-2.088;2023-03-17T15:12:18;0.50;;;0.50;;
17079;SDS011;8655;57.106;-2.088;2023-03-17T15:14:49;0.82;;;0.50;;
17079;SDS011;8655;57.106;-2.088;2023-03-17T15:17:20;0.40;;;0.40;;
17079;SDS011;8655;57.106;-2.088;2023-03-17T15:19:51;0.60;;;0.60;;
17079;SDS011;8655;57.106;-2.088;2023-03-17T15:22:22;0.70;;;0.70;;
17079;SDS011;8655;57.106;-2.088;2023-03-17T15:24:57;0.80;;;0.60;;
17079;SDS011;8655;57.106;-2.088;2023-03-17T15:27:24;1.23;;;0.80;;
17079;SDS011;8655;57.106;-2.088;2023-03-17T15:29:51;0.87;;;0.70;;
17079;SDS011;8655;57.106;-2.088;2023-03-17T15:32:17;3.77;;;1.03;;
17079;SDS011;8655;57.106;-2.088;2023-03-17T15:34:45;2.13;;;0.80;;
17079;SDS011;8655;57.106;-2.088;2023-03-17T15:37:25;0.97;;;0.80;;
17079;SDS011;8655;57.106;-2.088;2023-03-17T15:39:53;1.00;;;0.73;;
17079;SDS011;8655;57.106;-2.088;2023-03-17T15:42:21;2.37;;;0.87;;
17079;SDS011;8655;57.106;-2.088;2023-03-17T15:44:50;1.67;;;1.10;;
17079;SDS011;8655;57.106;-2.088;2023-03-17T15:47:20;1.08;;;0.90;;
17079;SDS011;8655;57.106;-2.088;2023-03-17T15:49:47;1.03;;;0.63;;
17079;SDS011;8655;57.106;-2.088;2023-03-17T15:52:21;1.43;;;0.80;;
17079;SDS011;8655;57.106;-2.088;2023-03-17T15:54:49;1.30;;;0.77;;
17079;SDS011;8655;57.106;-2.088;2023-03-17T15:57:21;1.20;;;0.70;;
17079;SDS011;8655;57.106;-2.088;2023-03-17T15:59:47;0.88;;;0.60;;
17079;SDS011;8655;57.106;-2.088;2023-03-17T16:04:52;2.63;;;1.10;;
17079;SDS011;8655;57.106;-2.088;2023-03-17T16:07:19;1.00;;;0.87;;
17079;SDS011;8655;57.106;-2.088;2023-03-17T16:09:45;0.73;;;0.70;;
17079;SDS011;8655;57.106;-2.088;2023-03-17T16:12:11;1.20;;;0.90;;
17079;SDS011;8655;57.106;-2.088;2023-03-17T16:14:38;0.60;;;0.60;;
17079;SDS011;8655;57.106;-2.088;2023-03-17T16:17:05;1.07;;;0.70;;
17079;SDS011;8655;57.106;-2.088;2023-03-17T16:19:31;1.42;;;0.70;;
17079;SDS011;8655;57.106;-2.088;2023-03-17T16:21:57;1.00;;;0.80;;
17079;SDS011;8655;57.106;-2.088;2023-03-17T16:24:24;1.40;;;0.98;;
17079;SDS011;8655;57.106;-2.088;2023-03-17T16:26:51;1.63;;;0.90;;
17079;SDS011;8655;57.106;-2.088;2023-03-17T16:29:17;1.23;;;0.70;;
17079;SDS011;8655;57.106;-2.088;2023-03-17T16:31:48;1.83;;;1.10;;
17079;SDS011;8655;57.106;-2.088;2023-03-17T16:34:18;1.10;;;0.90;;
17079;SDS011;8655;57.106;-2.088;2023-03-17T16:36:48;2.23;;;0.87;;
17079;SDS011;8655;57.106;-2.088;2023-03-17T16:41:42;1.90;;;0.90;;
17079;SDS011;8655;57.106;-2.088;2023-03-17T16:44:14;1.47;;;1.00;;
17079;SDS011;8655;57.106;-2.088;2023-03-17T16:46:42;1.60;;;1.00;;